Time;durP1;ratioP1;P1;durP2;ratioP2;P2;SDS_P1;SDS_P2;PMS_P1;PMS_P2;Temp;Humidity;BMP_temperature;BMP_pressure;BME280_temperature;BME280_humidity;BME280_pressure;Samples;Min_cycle;Max_cycle;Signal;HPM_P1;HPM_P2
2022/06/03 00:01:34;;;;;;;2.97;2.67;;;15.80;99.90;;;;;;5030931;28;20492;-45
2022/06/03 00:04:18;;;;;;;2.53;1.97;;;15.80;99.90;;;;;;5031155;28;20456;-44
2022/06/03 00:07:08;;;;;;;3.50;2.30;;;15.80;99.90;;;;;;5030661;28;20494;-45
2022/06/03 00:09:56;;;;;;;3.53;2.40;;;15.60;99.90;;;;;;5030818;28;20477;-45
2022/06/03 00:12:50;;;;;;;2.93;2.73;;;15.60;99.90;;;;;;5031217;28;20516;-44
2022/06/03 00:15:39;;;;;;;4.60;2.97;;;15.60;99.90;;;;;;5033525;28;20485;-45
2022/06/03 00:18:55;;;;;;;4.37;2.70;;;15.50;99.90;;;;;;5034994;28;20947;-45
2022/06/03 00:21:43;;;;;;;1.87;1.73;;;15.60;99.90;;;;;;5034829;28;20442;-45
2022/06/03 00:24:23;;;;;;;2.20;2.00;;;15.60;99.90;;;;;;5035191;28;20488;-44
2022/06/03 00:27:17;;;;;;;5.17;2.70;;;15.70;99.90;;;;;;5034657;28;20508;-44
2022/06/03 00:29:56;;;;;;;2.50;2.20;;;15.70;99.90;;;;;;5034238;28;21008;-44
2022/06/03 00:33:00;;;;;;;2.67;2.47;;;15.60;99.90;;;;;;5034606;28;20893;-45
2022/06/03 00:35:42;;;;;;;2.40;2.20;;;15.70;99.90;;;;;;5034566;28;20982;-47
2022/06/03 00:38:39;;;;;;;5.40;2.73;;;15.70;99.90;;;;;;5034496;28;20442;-46
2022/06/03 00:41:25;;;;;;;2.47;2.10;;;15.70;99.90;;;;;;5032597;28;20490;-46
2022/06/03 00:44:20;;;;;;;3.67;2.43;;;15.70;99.90;;;;;;5034330;28;21004;-46
2022/06/03 00:47:05;;;;;;;2.83;2.43;;;15.80;99.90;;;;;;5034549;28;20569;-45
2022/06/03 00:49:50;;;;;;;2.57;1.70;;;15.70;99.90;;;;;;5033869;28;20479;-46
2022/06/03 00:52:44;;;;;;;2.47;2.27;;;15.70;99.90;;;;;;5034541;28;20488;-45
2022/06/03 00:55:39;;;;;;;4.03;2.30;;;15.80;99.90;;;;;;5034088;28;20523;-45
2022/06/03 00:58:39;;;;;;;2.50;2.30;;;15.60;99.90;;;;;;5011350;28;20445;-44
2022/06/03 01:01:11;;;;;;;2.10;1.90;;;15.30;99.90;;;;;;5032314;28;20489;-45
2022/06/03 01:04:05;;;;;;;2.73;2.20;;;15.40;99.90;;;;;;5034075;28;20504;-46
2022/06/03 01:06:46;;;;;;;3.57;2.47;;;15.40;99.90;;;;;;5034048;28;20486;-45
2022/06/03 01:09:30;;;;;;;3.13;2.83;;;15.50;99.90;;;;;;5033791;28;20442;-47
2022/06/03 01:12:20;;;;;;;3.10;2.30;;;15.50;99.90;;;;;;5034197;28;20481;-44
2022/06/03 01:15:02;;;;;;;2.70;2.17;;;15.60;99.90;;;;;;5033902;28;20531;-44
2022/06/03 01:17:38;;;;;;;3.20;2.40;;;15.60;99.90;;;;;;5033904;28;20922;-44
2022/06/03 01:20:17;;;;;;;2.90;2.70;;;15.60;99.90;;;;;;5033521;28;20492;-44
2022/06/03 01:23:37;;;;;;;3.37;2.57;;;15.50;99.90;;;;;;5033978;28;20499;-47
2022/06/03 01:26:47;;;;;;;2.40;2.10;;;15.50;99.90;;;;;;5032959;28;20489;-44
2022/06/03 01:29:30;;;;;;;4.83;2.60;;;15.50;99.90;;;;;;4991464;28;20447;-45
2022/06/03 01:32:48;;;;;;;2.60;2.23;;;15.30;99.90;;;;;;5032028;28;21004;-45
2022/06/03 01:35:48;;;;;;;3.00;2.40;;;15.10;99.90;;;;;;4987063;28;20531;-44
2022/06/03 01:38:27;;;;;;;2.60;2.40;;;14.90;99.90;;;;;;5033409;28;20883;-45
2022/06/03 01:41:20;;;;;;;4.73;2.50;;;15.10;99.90;;;;;;5032994;28;20477;-45
2022/06/03 01:44:30;;;;;;;3.30;2.00;;;15.20;99.90;;;;;;5033669;28;20443;-44
2022/06/03 01:47:32;;;;;;;4.20;3.47;;;15.20;99.90;;;;;;5033352;28;20982;-45
2022/06/03 01:50:25;;;;;;;2.60;2.10;;;15.20;99.90;;;;;;5031061;28;20453;-44
2022/06/03 01:53:29;;;;;;;2.80;2.07;;;15.00;99.90;;;;;;5033781;28;20474;-45
2022/06/03 01:56:41;;;;;;;2.70;2.37;;;14.90;99.90;;;;;;5033301;28;20462;-45
2022/06/03 01:59:29;;;;;;;3.37;2.80;;;15.00;99.90;;;;;;4991230;28;20490;-45
2022/06/03 02:02:29;;;;;;;2.90;2.60;;;15.20;99.90;;;;;;5033165;28;20493;-45
2022/06/03 02:05:41;;;;;;;2.30;2.10;;;15.30;99.90;;;;;;5032869;28;20442;-45
2022/06/03 02:08:59;;;;;;;2.17;2.00;;;15.30;99.90;;;;;;5033126;28;20474;-45
2022/06/03 02:12:03;;;;;;;2.40;2.20;;;15.30;99.90;;;;;;5032887;28;20472;-45
2022/06/03 02:15:03;;;;;;;8.63;2.73;;;15.30;99.90;;;;;;5032880;28;20477;-45
2022/06/03 02:18:00;;;;;;;2.70;2.50;;;15.30;99.90;;;;;;5032727;28;20441;-45
2022/06/03 02:20:57;;;;;;;2.30;2.10;;;15.30;99.90;;;;;;5032490;28;20466;-44
2022/06/03 02:24:11;;;;;;;2.10;1.90;;;15.30;99.90;;;;;;5032884;28;20499;-45
2022/06/03 02:27:28;;;;;;;2.93;2.30;;;15.30;99.90;;;;;;5032710;28;20493;-45
2022/06/03 02:30:36;;;;;;;3.90;2.57;;;15.30;99.90;;;;;;4990097;28;20517;-45
2022/06/03 02:33:36;;;;;;;2.40;1.93;;;15.00;99.90;;;;;;5032444;28;20443;-45
2022/06/03 02:36:43;;;;;;;3.27;2.50;;;15.00;99.90;;;;;;5032270;28;20454;-45
2022/06/03 02:39:40;;;;;;;4.10;3.23;;;15.20;99.90;;;;;;5032221;28;20437;-45
2022/06/03 02:42:34;;;;;;;2.80;2.40;;;15.20;99.90;;;;;;5032064;28;20437;-44
2022/06/03 02:45:23;;;;;;;2.60;2.40;;;15.10;99.90;;;;;;5032105;28;20524;-44
2022/06/03 02:48:37;;;;;;;4.00;2.10;;;15.10;99.90;;;;;;5032299;28;20512;-45
2022/06/03 02:51:36;;;;;;;3.10;2.33;;;15.10;99.90;;;;;;5032011;28;20445;-45
2022/06/03 02:54:37;;;;;;;3.03;2.43;;;15.10;99.90;;;;;;5009249;28;20959;-45
2022/06/03 02:57:44;;;;;;;2.70;2.30;;;15.10;99.90;;;;;;5032027;28;20535;-44
2022/06/03 03:00:30;;;;;;;3.03;2.50;;;15.10;99.90;;;;;;5011346;28;20474;-44
2022/06/03 03:03:39;;;;;;;2.67;2.47;;;15.20;99.90;;;;;;5032199;28;20446;-45
2022/06/03 03:06:28;;;;;;;2.77;2.43;;;15.20;99.90;;;;;;5031639;28;20871;-44
2022/06/03 03:09:33;;;;;;;4.47;2.10;;;15.20;99.90;;;;;;5031867;28;20583;-45
2022/06/03 03:12:32;;;;;;;4.20;2.53;;;15.20;99.90;;;;;;5031866;28;20922;-44
2022/06/03 03:15:16;;;;;;;3.60;2.40;;;15.20;99.90;;;;;;5031909;28;20449;-45
2022/06/03 03:18:16;;;;;;;2.30;2.10;;;15.30;99.90;;;;;;5031874;28;20872;-44
2022/06/03 03:21:31;;;;;;;2.20;2.00;;;15.20;99.90;;;;;;5031393;28;20537;-45
2022/06/03 03:24:20;;;;;;;4.87;2.30;;;15.00;99.90;;;;;;4980167;28;20455;-44
2022/06/03 03:26:55;;;;;;;2.40;2.20;;;15.00;99.90;;;;;;5031714;28;20631;-45
2022/06/03 03:29:44;;;;;;;4.33;2.40;;;15.00;99.90;;;;;;5031388;28;20966;-45
2022/06/03 03:32:25;;;;;;;2.70;2.50;;;14.80;99.90;;;;;;5031762;28;20521;-44
2022/06/03 03:35:15;;;;;;;2.97;2.70;;;14.90;99.90;;;;;;5031393;28;20524;-47
2022/06/03 03:38:28;;;;;;;2.50;2.30;;;14.90;99.90;;;;;;5031407;28;20608;-44
2022/06/03 03:41:22;;;;;;;2.90;2.60;;;14.90;99.90;;;;;;5030972;28;20962;-45
2022/06/03 03:44:31;;;;;;;3.90;2.20;;;14.90;99.90;;;;;;5031216;28;20474;-45
2022/06/03 03:47:37;;;;;;;2.93;2.73;;;15.00;99.90;;;;;;5031369;28;20490;-44
2022/06/03 03:50:41;;;;;;;2.30;2.07;;;15.00;99.90;;;;;;5028618;28;20533;-45
2022/06/03 03:53:43;;;;;;;3.20;2.23;;;15.00;99.90;;;;;;5031097;28;20484;-44
2022/06/03 03:56:46;;;;;;;3.20;2.90;;;15.00;99.90;;;;;;5031337;28;20460;-46
2022/06/03 03:59:58;;;;;;;3.43;2.60;;;14.90;99.90;;;;;;5030903;28;20442;-45
2022/06/03 04:03:13;;;;;;;2.90;2.33;;;14.90;99.90;;;;;;5031267;28;20796;-44
2022/06/03 04:06:01;;;;;;;3.07;2.40;;;15.00;99.90;;;;;;5020833;22;20495;-47
2022/06/03 04:08:52;;;;;;;3.53;3.03;;;14.90;99.90;;;;;;5070756;28;20491;-45
2022/06/03 04:11:45;;;;;;;3.00;2.70;;;14.80;99.90;;;;;;5026843;28;20475;-46
2022/06/03 04:14:57;;;;;;;4.20;2.60;;;14.80;99.90;;;;;;5067745;28;20537;-44
2022/06/03 04:18:00;;;;;;;2.60;2.40;;;14.80;99.90;;;;;;5070773;28;20456;-44
2022/06/03 04:20:53;;;;;;;4.47;2.87;;;14.80;99.90;;;;;;5070689;28;20440;-46
2022/06/03 04:23:48;;;;;;;3.00;2.57;;;14.90;99.90;;;;;;5070750;28;20497;-44
2022/06/03 04:26:39;;;;;;;3.17;2.87;;;14.90;99.90;;;;;;5069896;28;20516;-49
2022/06/03 04:29:44;;;;;;;4.37;3.50;;;15.00;99.90;;;;;;5070598;28;20519;-48
2022/06/03 04:32:49;;;;;;;2.47;2.27;;;15.00;99.90;;;;;;5070628;28;20506;-45
2022/06/03 04:35:45;;;;;;;4.87;2.90;;;15.00;99.90;;;;;;5070640;28;20436;-49
2022/06/03 04:38:56;;;;;;;3.20;2.90;;;15.10;99.90;;;;;;5070624;28;20444;-43
2022/06/03 04:42:05;;;;;;;3.80;3.30;;;15.10;99.90;;;;;;5036220;28;20502;-45
2022/06/03 04:45:07;;;;;;;4.80;4.40;;;14.80;99.90;;;;;;5023583;28;20446;-49
2022/06/03 04:48:19;;;;;;;4.30;3.90;;;14.80;99.90;;;;;;5070653;28;20515;-44
2022/06/03 04:51:22;;;;;;;3.77;3.20;;;14.80;99.90;;;;;;4988317;28;21019;-44
2022/06/03 04:54:35;;;;;;;4.00;3.60;;;14.80;99.90;;;;;;5070492;28;20491;-45
2022/06/03 04:57:43;;;;;;;3.77;3.47;;;14.80;99.90;;;;;;5070498;28;20533;-45
2022/06/03 05:00:22;;;;;;;3.73;3.30;;;15.00;99.90;;;;;;5070966;28;20960;-47
2022/06/03 05:03:35;;;;;;;3.40;3.10;;;15.00;99.90;;;;;;5074186;28;20475;-44
2022/06/03 05:10:08;;;;;;;3.20;2.90;;;15.10;99.90;;;;;;5150107;27;20615;-45
2022/06/03 05:13:14;;;;;;;3.67;3.37;;;15.20;99.90;;;;;;5150265;27;20497;-45
2022/06/03 05:16:29;;;;;;;3.90;3.60;;;15.20;99.90;;;;;;5150086;27;20889;-45
2022/06/03 05:19:35;;;;;;;3.90;3.10;;;15.30;99.90;;;;;;5150011;27;20465;-45
2022/06/03 05:22:25;;;;;;;3.63;3.00;;;15.30;99.90;;;;;;5151312;27;20433;-44
2022/06/03 05:25:38;;;;;;;3.50;2.67;;;15.30;99.90;;;;;;5115268;27;20957;-44
2022/06/03 05:28:41;;;;;;;3.53;3.23;;;15.20;99.90;;;;;;5149863;27;20523;-46
2022/06/03 05:31:46;;;;;;;4.07;3.77;;;15.00;99.90;;;;;;5144124;27;20816;-46
2022/06/03 05:34:56;;;;;;;4.73;3.30;;;15.10;99.90;;;;;;5149899;27;20437;-49
2022/06/03 05:37:58;;;;;;;3.60;3.30;;;15.10;99.90;;;;;;5149820;27;20475;-44
2022/06/03 05:40:37;;;;;;;3.33;3.00;;;15.10;99.90;;;;;;5149370;27;20468;-44
2022/06/03 05:43:36;;;;;;;4.63;3.13;;;15.00;99.90;;;;;;5149979;27;20520;-45
2022/06/03 05:46:11;;;;;;;3.20;2.90;;;14.90;99.90;;;;;;5150234;27;20488;-45
2022/06/03 05:48:57;;;;;;;3.80;3.50;;;15.00;99.90;;;;;;5149300;27;20850;-46
2022/06/03 05:51:53;;;;;;;3.40;3.17;;;15.20;99.90;;;;;;5149176;27;20532;-44
2022/06/03 05:54:41;;;;;;;3.80;3.40;;;15.30;99.90;;;;;;5141970;27;20477;-47
2022/06/03 05:57:18;;;;;;;3.20;2.90;;;15.40;99.90;;;;;;5149194;27;21032;-45
2022/06/03 06:00:28;;;;;;;4.30;3.73;;;15.40;99.90;;;;;;5148677;27;20912;-47
2022/06/03 06:03:20;;;;;;;4.77;2.90;;;15.50;99.90;;;;;;5099121;27;20437;-44
2022/06/03 06:05:53;;;;;;;3.27;2.97;;;15.90;99.90;;;;;;5149214;27;20493;-44
2022/06/03 06:08:30;;;;;;;4.10;2.90;;;16.80;99.90;;;;;;5149233;27;20555;-46
2022/06/03 06:11:04;;;;;;;4.20;3.17;;;17.80;99.90;;;;;;5148897;27;20442;-44
2022/06/03 06:13:57;;;;;;;3.40;3.10;;;18.70;99.90;;;;;;5149549;27;20947;-44
2022/06/03 06:16:31;;;;;;;4.20;2.97;;;19.70;99.90;;;;;;5148879;27;20461;-44
2022/06/03 06:19:04;;;;;;;3.20;2.23;;;19.80;99.90;;;;;;5145458;27;20644;-45
2022/06/03 06:21:58;;;;;;;4.10;2.60;;;19.70;99.90;;;;;;5135225;27;20446;-45
2022/06/03 06:24:50;;;;;;;3.37;2.97;;;19.50;99.90;;;;;;5134921;27;20874;-50
2022/06/03 06:27:50;;;;;;;2.80;2.57;;;19.40;99.90;;;;;;5135293;27;20465;-45
2022/06/03 06:30:50;;;;;;;4.20;2.80;;;19.30;99.90;;;;;;5134406;27;20432;-49
2022/06/03 06:33:49;;;;;;;3.30;2.80;;;19.10;99.90;;;;;;5134788;27;20499;-45
2022/06/03 06:36:44;;;;;;;4.40;2.67;;;18.80;99.90;;;;;;5135172;27;20473;-45
2022/06/03 06:39:24;;;;;;;4.00;3.70;;;18.70;99.90;;;;;;5134658;27;20460;-46
2022/06/03 06:42:02;;;;;;;5.03;2.97;;;18.60;99.90;;;;;;5134442;27;20561;-44
2022/06/03 06:44:41;;;;;;;4.10;3.70;;;18.50;99.90;;;;;;5134724;27;20578;-45
2022/06/03 06:47:17;;;;;;;4.33;3.57;;;18.50;99.90;;;;;;5134538;27;20515;-46
2022/06/03 06:49:55;;;;;;;5.40;3.57;;;18.40;99.90;;;;;;5133976;27;20534;-45
2022/06/03 06:52:38;;;;;;;3.30;3.00;;;18.40;99.90;;;;;;5134652;27;21029;-44
2022/06/03 06:55:12;;;;;;;3.80;3.23;;;18.30;99.90;;;;;;5134290;27;20486;-46
2022/06/03 06:57:45;;;;;;;3.70;3.30;;;18.30;99.90;;;;;;5134944;27;20441;-46
2022/06/03 07:00:22;;;;;;;3.30;3.00;;;18.30;99.90;;;;;;5134527;27;20438;-45
2022/06/03 07:02:53;;;;;;;3.73;3.07;;;18.40;99.90;;;;;;5134358;27;20515;-45
2022/06/03 07:05:28;;;;;;;3.30;3.00;;;18.40;99.90;;;;;;5134364;27;20494;-45
2022/06/03 07:08:01;;;;;;;3.67;2.90;;;18.30;99.90;;;;;;5134138;27;20483;-48
2022/06/03 07:10:36;;;;;;;4.27;3.10;;;18.30;99.90;;;;;;5134212;27;20469;-44
2022/06/03 07:13:11;;;;;;;3.90;3.57;;;18.40;99.90;;;;;;5134367;27;20494;-49
2022/06/03 07:15:53;;;;;;;3.13;2.83;;;18.40;99.90;;;;;;5134222;27;20461;-45
2022/06/03 07:21:22;;;;;;;3.63;3.33;;;18.90;99.90;;;;;;5134147;27;20417;-49
2022/06/03 07:23:51;;;;;;;3.03;2.83;;;18.80;99.90;;;;;;5133769;27;20477;-46
2022/06/03 07:26:37;;;;;;;3.67;3.30;;;18.60;99.90;;;;;;5133694;27;20457;-49
2022/06/03 07:29:14;;;;;;;3.00;2.77;;;18.80;99.90;;;;;;5133765;27;20505;-45
2022/06/03 07:31:48;;;;;;;3.93;2.90;;;19.10;99.90;;;;;;5132357;27;20499;-49
2022/06/03 07:34:20;;;;;;;3.40;3.10;;;19.50;99.90;;;;;;5134039;27;20470;-46
2022/06/03 07:36:54;;;;;;;4.90;3.53;;;19.70;99.90;;;;;;5133377;27;20526;-45
2022/06/03 07:39:37;;;;;;;2.73;2.47;;;19.70;99.90;;;;;;5133659;27;20862;-49
2022/06/03 07:42:10;;;;;;;3.73;3.43;;;19.90;99.90;;;;;;5133363;27;20469;-45
2022/06/03 07:44:47;;;;;;;3.23;2.93;;;20.00;99.90;;;;;;5133633;27;20445;-45
2022/06/03 07:47:15;;;;;;;4.10;2.97;;;20.10;99.90;;;;;;5133475;27;20457;-48
2022/06/03 07:49:45;;;;;;;3.20;2.97;;;20.10;99.90;;;;;;5132905;27;20485;-44
2022/06/03 07:52:23;;;;;;;5.13;3.87;;;19.80;99.90;;;;;;5133325;27;20477;-45
2022/06/03 07:54:55;;;;;;;3.00;2.70;;;19.50;99.90;;;;;;5133569;27;20807;-49
2022/06/03 07:57:25;;;;;;;3.20;2.90;;;19.50;99.90;;;;;;5133307;27;20466;-47
2022/06/03 07:59:57;;;;;;;3.10;2.80;;;19.60;99.90;;;;;;5133278;27;20502;-45
2022/06/03 08:02:25;;;;;;;3.67;3.37;;;19.90;99.90;;;;;;5133358;27;20442;-44
2022/06/03 08:05:04;;;;;;;3.23;2.93;;;20.00;99.90;;;;;;5133230;27;20526;-45
2022/06/03 08:13:05;;;;;;;3.50;3.20;;;20.70;99.90;;;;;;5133015;27;20941;-44
2022/06/03 08:15:36;;;;;;;3.03;2.83;;;21.00;99.90;;;;;;5132965;27;20536;-45
2022/06/03 08:18:05;;;;;;;8.57;3.30;;;21.10;99.90;;;;;;5129759;27;20989;-45
2022/06/03 08:20:35;;;;;;;2.93;2.70;;;21.20;99.90;;;;;;5132487;27;20525;-45
2022/06/03 08:23:05;;;;;;;4.27;3.20;;;21.10;99.90;;;;;;5131012;27;20526;-47
2022/06/03 08:25:40;;;;;;;3.97;3.67;;;20.90;99.90;;;;;;5132401;27;20450;-50
2022/06/03 08:28:09;;;;;;;3.23;2.87;;;20.90;99.90;;;;;;5132738;27;20494;-45
2022/06/03 08:30:40;;;;;;;3.43;3.10;;;21.00;99.90;;;;;;5132129;27;20452;-45
2022/06/03 08:33:11;;;;;;;3.47;3.17;;;20.90;99.90;;;;;;5128991;27;20441;-45
2022/06/03 08:35:43;;;;;;;3.90;3.43;;;21.00;99.90;;;;;;5130915;27;20489;-46
2022/06/03 08:38:14;;;;;;;3.40;3.17;;;21.00;99.90;;;;;;5132619;27;20445;-45
2022/06/03 08:40:48;;;;;;;4.30;3.30;;;20.90;99.90;;;;;;5132012;27;20437;-46
2022/06/03 08:43:26;;;;;;;4.57;3.30;;;20.90;99.90;;;;;;5132157;27;20453;-45
2022/06/03 08:45:56;;;;;;;3.00;2.70;;;21.00;99.90;;;;;;5131183;27;20588;-48
2022/06/03 08:48:29;;;;;;;3.60;3.30;;;21.00;99.90;;;;;;5131773;27;20473;-49
2022/06/03 08:51:00;;;;;;;3.70;3.40;;;21.00;99.90;;;;;;5131258;27;20859;-47
2022/06/03 08:53:36;;;;;;;5.67;3.20;;;21.00;99.90;;;;;;5132440;27;20540;-45
2022/06/03 08:56:07;;;;;;;3.67;3.33;;;21.10;99.90;;;;;;5131769;27;20497;-46
2022/06/03 08:58:43;;;;;;;4.20;3.60;;;21.10;99.90;;;;;;5132257;27;20438;-45
2022/06/03 09:01:18;;;;;;;4.60;3.80;;;21.10;99.90;;;;;;5131692;27;20437;-45
2022/06/03 09:03:52;;;;;;;3.50;3.20;;;21.20;99.90;;;;;;5132097;27;20464;-47
2022/06/03 09:06:40;;;;;;;3.77;3.33;;;21.20;99.90;;;;;;5132038;27;21069;-49
2022/06/03 09:09:13;;;;;;;3.60;3.30;;;21.30;99.90;;;;;;5131040;27;20800;-45
2022/06/03 09:11:46;;;;;;;3.70;3.47;;;21.30;99.90;;;;;;5131517;27;20945;-45
2022/06/03 09:14:21;;;;;;;3.70;3.40;;;21.40;99.90;;;;;;5132185;27;20441;-48
2022/06/03 09:17:02;;;;;;;3.87;3.57;;;21.60;99.90;;;;;;5131515;27;20863;-47
2022/06/03 09:19:34;;;;;;;3.17;2.87;;;21.60;99.90;;;;;;5131364;27;20998;-49
2022/06/03 09:22:11;;;;;;;3.57;3.27;;;21.50;99.90;;;;;;5131117;27;20477;-45
2022/06/03 09:24:40;;;;;;;4.30;3.90;;;21.60;99.90;;;;;;5132155;27;20444;-45
2022/06/03 09:27:10;;;;;;;4.20;3.90;;;21.50;99.90;;;;;;5131987;27;20966;-45
2022/06/03 09:29:38;;;;;;;5.53;4.07;;;21.60;99.90;;;;;;5131689;27;21007;-45
2022/06/03 09:32:10;;;;;;;4.03;3.63;;;21.80;99.90;;;;;;5130870;27;20430;-45
2022/06/03 09:34:41;;;;;;;3.90;3.60;;;21.90;99.90;;;;;;5131987;27;20837;-47
2022/06/03 09:37:12;;;;;;;4.20;3.90;;;22.10;99.90;;;;;;5131370;27;20468;-45
2022/06/03 09:39:40;;;;;;;3.83;3.53;;;22.30;99.90;;;;;;5131586;27;20537;-47
2022/06/03 09:42:09;;;;;;;3.80;3.50;;;22.40;99.90;;;;;;5131399;27;20938;-46
2022/06/03 09:44:36;;;;;;;5.90;4.30;;;22.30;99.90;;;;;;5131847;27;20446;-46
2022/06/03 09:47:07;;;;;;;3.90;3.60;;;22.40;99.90;;;;;;5131829;27;20514;-45
2022/06/03 09:49:34;;;;;;;7.83;4.10;;;22.50;99.90;;;;;;5131094;27;20885;-46
2022/06/03 09:52:03;;;;;;;6.50;4.30;;;22.30;99.90;;;;;;5131590;27;20797;-45
2022/06/03 09:54:34;;;;;;;6.10;4.33;;;22.20;99.90;;;;;;5132731;27;20806;-46
2022/06/03 09:57:09;;;;;;;6.00;4.30;;;22.40;99.90;;;;;;5135600;27;20544;-45
2022/06/03 09:59:39;;;;;;;8.60;4.30;;;22.30;99.90;;;;;;5135483;27;20451;-47
2022/06/03 10:02:09;;;;;;;10.10;5.50;;;22.40;99.90;;;;;;5135584;27;20533;-45
2022/06/03 10:04:36;;;;;;;14.77;6.00;;;22.50;99.90;;;;;;5135445;27;20518;-46
2022/06/03 10:07:03;;;;;;;4.37;3.73;;;22.60;99.90;;;;;;5135066;27;20465;-46
2022/06/03 10:12:52;;;;;;;11.60;4.57;;;22.80;99.90;;;;;;5135214;27;20417;-45
2022/06/03 10:15:41;;;;;;;9.07;5.43;;;23.00;99.90;;;;;;5135270;27;20926;-51
2022/06/03 10:18:21;;;;;;;4.03;3.63;;;23.10;99.90;;;;;;5135212;27;20480;-49
2022/06/03 10:20:49;;;;;;;3.83;3.50;;;22.90;99.90;;;;;;5135231;27;20442;-45
2022/06/03 10:23:20;;;;;;;8.17;6.00;;;22.80;99.90;;;;;;5135191;27;20469;-49
2022/06/03 10:25:50;;;;;;;8.03;5.47;;;22.70;99.90;;;;;;5135022;27;20457;-46
2022/06/03 10:28:17;;;;;;;9.63;6.30;;;22.90;99.90;;;;;;5134572;27;20440;-47
2022/06/03 10:30:46;;;;;;;9.53;6.30;;;23.00;99.90;;;;;;5133985;27;20473;-50
2022/06/03 10:33:19;;;;;;;4.57;4.17;;;23.20;99.90;;;;;;5134647;27;20945;-46
2022/06/03 10:35:47;;;;;;;5.30;4.10;;;23.30;99.90;;;;;;5134989;27;20458;-45
2022/06/03 10:38:17;;;;;;;4.70;4.30;;;23.40;99.90;;;;;;5134823;27;20441;-48
2022/06/03 10:40:48;;;;;;;5.60;5.07;;;23.30;99.90;;;;;;5134265;27;20438;-45
2022/06/03 10:43:22;;;;;;;4.23;3.83;;;23.30;99.90;;;;;;5134962;27;20442;-47
2022/06/03 10:45:49;;;;;;;5.60;4.93;;;23.20;99.90;;;;;;5134606;27;20989;-46
2022/06/03 10:48:23;;;;;;;4.40;3.40;;;23.30;99.90;;;;;;5134454;27;20448;-46
2022/06/03 10:50:51;;;;;;;4.27;3.70;;;23.30;99.90;;;;;;5134049;27;20552;-46
2022/06/03 11:01:48;;;;;;;4.23;3.87;;;23.30;99.90;;;;;;5134576;27;20481;-46
2022/06/03 11:04:29;;;;;;;4.50;3.77;;;23.40;99.90;;;;;;5134379;27;20971;-46
2022/06/03 11:06:58;;;;;;;4.33;3.93;;;23.50;99.90;;;;;;5134343;27;20461;-45
2022/06/03 11:09:26;;;;;;;4.63;3.93;;;23.50;99.90;;;;;;5133838;27;20542;-46
2022/06/03 11:11:58;;;;;;;4.80;4.33;;;23.60;99.90;;;;;;5133915;27;20488;-50
2022/06/03 11:14:29;;;;;;;4.80;4.33;;;23.60;99.90;;;;;;5133909;27;21007;-47
2022/06/03 11:17:16;;;;;;;4.83;4.43;;;23.70;99.90;;;;;;5134069;27;20518;-45
2022/06/03 11:19:47;;;;;;;10.23;4.67;;;23.80;99.90;;;;;;5133485;27;20537;-46
2022/06/03 11:22:24;;;;;;;5.90;5.40;;;23.80;99.90;;;;;;5108813;22;21081;-45
2022/06/03 11:25:02;;;;;;;5.40;4.90;;;23.90;99.90;;;;;;5072299;28;20440;-45
2022/06/03 11:27:35;;;;;;;5.57;4.47;;;23.90;99.90;;;;;;5072624;28;21039;-45
2022/06/03 11:30:06;;;;;;;4.90;4.50;;;23.90;99.90;;;;;;5072066;28;20479;-46
2022/06/03 11:32:36;;;;;;;6.27;4.53;;;23.90;99.90;;;;;;5072032;28;20455;-45
2022/06/03 11:35:08;;;;;;;5.33;4.23;;;23.80;99.90;;;;;;5072632;28;20440;-44
2022/06/03 11:37:39;;;;;;;5.77;4.60;;;23.80;99.90;;;;;;5072356;28;20790;-45
2022/06/03 11:40:14;;;;;;;6.77;4.73;;;23.70;99.90;;;;;;5072140;28;20443;-44
2022/06/03 11:42:47;;;;;;;9.00;4.57;;;23.70;99.90;;;;;;5072290;28;20512;-45
2022/06/03 11:45:16;;;;;;;5.37;4.60;;;23.70;99.90;;;;;;5072427;28;20543;-45
2022/06/03 11:47:52;;;;;;;4.93;4.40;;;23.70;99.90;;;;;;5072266;28;20497;-45
2022/06/03 11:50:23;;;;;;;4.97;4.40;;;23.80;99.90;;;;;;5071521;28;20563;-49
2022/06/03 11:52:54;;;;;;;5.80;4.30;;;23.80;99.90;;;;;;5071967;28;20535;-46
2022/06/03 11:55:23;;;;;;;4.67;4.27;;;23.70;99.90;;;;;;5071717;28;20502;-45
2022/06/03 11:57:56;;;;;;;4.37;3.97;;;23.80;99.90;;;;;;5071975;28;20478;-50
2022/06/03 12:00:25;;;;;;;4.97;4.57;;;23.80;99.90;;;;;;5071856;28;20436;-45
2022/06/03 12:03:17;;;;;;;5.17;4.50;;;23.80;99.90;;;;;;5071987;28;20444;-46
2022/06/03 12:05:49;;;;;;;4.60;4.20;;;23.90;99.90;;;;;;5071629;28;20467;-49
2022/06/03 12:08:21;;;;;;;5.17;4.77;;;23.80;99.90;;;;;;5072131;28;20449;-45
2022/06/03 12:10:57;;;;;;;6.60;5.50;;;23.80;99.90;;;;;;5071446;28;20991;-45
2022/06/03 12:13:27;;;;;;;5.03;4.57;;;23.80;99.90;;;;;;5071571;28;20850;-44
2022/06/03 12:16:11;;;;;;;5.63;5.10;;;23.90;99.90;;;;;;5071615;28;20487;-45
2022/06/03 12:19:03;;;;;;;5.60;4.93;;;24.00;99.90;;;;;;5071331;28;20440;-45
2022/06/03 12:21:55;;;;;;;5.90;5.30;;;24.10;99.90;;;;;;5071411;28;20479;-46
2022/06/03 12:24:41;;;;;;;5.70;5.20;;;24.20;99.90;;;;;;5071555;28;20929;-45
2022/06/03 12:27:19;;;;;;;5.73;5.27;;;24.30;99.90;;;;;;5071132;28;20448;-45
2022/06/03 12:29:56;;;;;;;5.20;4.80;;;24.20;99.90;;;;;;5070466;28;20476;-45
2022/06/03 12:32:28;;;;;;;4.90;4.43;;;24.30;99.90;;;;;;5071335;28;20896;-45
2022/06/03 12:35:50;;;;;;;7.40;5.90;;;24.20;99.90;;;;;;5071652;28;20444;-46
2022/06/03 12:38:39;;;;;;;5.00;4.50;;;24.30;99.90;;;;;;5071341;28;20447;-46
2022/06/03 12:41:07;;;;;;;5.17;4.77;;;24.20;99.90;;;;;;5071096;28;20456;-45
2022/06/03 12:43:59;;;;;;;7.10;6.40;;;24.30;99.90;;;;;;5071115;28;20590;-45
2022/06/03 12:46:40;;;;;;;5.93;5.43;;;24.20;99.90;;;;;;5071544;28;20444;-45
2022/06/03 12:49:19;;;;;;;6.10;5.50;;;24.20;99.90;;;;;;5070835;28;20483;-45
2022/06/03 12:52:03;;;;;;;5.20;4.70;;;24.10;99.90;;;;;;5071205;28;20463;-45
2022/06/03 12:54:34;;;;;;;4.73;4.33;;;24.20;99.90;;;;;;5071104;28;20436;-46
2022/06/03 12:57:06;;;;;;;5.80;5.30;;;24.20;99.90;;;;;;5071116;28;20468;-48
2022/06/03 12:59:45;;;;;;;16.50;10.77;;;24.20;99.90;;;;;;5070992;28;20681;-45
2022/06/03 13:02:17;;;;;;;8.73;6.37;;;24.10;99.90;;;;;;5070982;28;20549;-45
2022/06/03 13:05:15;;;;;;;17.57;8.27;;;24.10;99.90;;;;;;5071035;28;20490;-45
2022/06/03 13:08:01;;;;;;;9.50;6.60;;;24.10;99.90;;;;;;5046348;28;21042;-47
2022/06/03 13:10:58;;;;;;;6.27;5.67;;;24.10;99.90;;;;;;5070965;28;20591;-45
2022/06/03 13:13:48;;;;;;;6.20;5.70;;;24.00;99.90;;;;;;5066526;28;20456;-46
2022/06/03 13:16:41;;;;;;;9.67;6.70;;;24.00;99.90;;;;;;5071201;28;20535;-48
2022/06/03 13:19:50;;;;;;;6.37;5.27;;;24.10;99.90;;;;;;5070516;28;20519;-45
2022/06/03 13:22:28;;;;;;;6.83;5.90;;;24.10;99.90;;;;;;5069749;28;20561;-45
2022/06/03 13:25:44;;;;;;;6.17;5.70;;;24.10;99.90;;;;;;5070057;28;20451;-47
2022/06/03 13:28:20;;;;;;;6.83;5.37;;;24.10;99.90;;;;;;5027253;28;20443;-46
2022/06/03 13:34:22;;;;;;;6.80;6.17;;;24.00;99.90;;;;;;5128507;27;20543;-45
2022/06/03 13:37:17;;;;;;;5.93;5.43;;;24.00;99.90;;;;;;5128383;27;20494;-47
2022/06/03 13:40:24;;;;;;;8.43;5.30;;;24.00;99.90;;;;;;5127683;27;20444;-46
2022/06/03 13:43:19;;;;;;;7.37;5.50;;;23.90;99.90;;;;;;5105904;28;20453;-48
2022/06/03 13:46:01;;;;;;;7.23;5.87;;;23.80;99.90;;;;;;5111132;22;20911;-46
2022/06/03 13:48:51;;;;;;;7.67;5.87;;;23.70;99.90;;;;;;5087215;28;20482;-45
2022/06/03 13:51:50;;;;;;;7.73;6.17;;;23.60;99.90;;;;;;5087243;28;20529;-47
2022/06/03 13:54:22;;;;;;;6.70;5.00;;;23.50;99.90;;;;;;5087445;28;20606;-50
2022/06/03 13:56:58;;;;;;;9.27;5.83;;;23.40;99.90;;;;;;5087358;28;20447;-46
2022/06/03 13:59:32;;;;;;;5.63;5.13;;;23.40;99.90;;;;;;5087068;28;20420;-50
2022/06/03 14:01:59;;;;;;;6.97;5.60;;;23.30;99.90;;;;;;5087304;28;20493;-46
2022/06/03 14:04:29;;;;;;;6.70;5.27;;;23.20;99.90;;;;;;5087225;28;20491;-49
2022/06/03 14:07:00;;;;;;;8.80;4.63;;;23.20;99.90;;;;;;5087321;28;20532;-50
2022/06/03 14:09:32;;;;;;;11.33;5.60;;;23.10;99.90;;;;;;5086937;28;20489;-47
2022/06/03 14:12:19;;;;;;;9.07;5.60;;;23.00;99.90;;;;;;5086966;28;20568;-46
2022/06/03 14:14:53;;;;;;;8.60;5.30;;;23.00;99.90;;;;;;5086665;28;20833;-48
2022/06/03 14:17:30;;;;;;;6.93;5.10;;;22.90;99.90;;;;;;5087079;28;20503;-46
2022/06/03 14:20:04;;;;;;;7.33;4.90;;;22.90;99.90;;;;;;5087230;28;20447;-51
2022/06/03 14:22:37;;;;;;;10.13;5.80;;;22.90;99.90;;;;;;5087155;28;20432;-47
2022/06/03 14:25:17;;;;;;;9.90;5.40;;;22.80;99.90;;;;;;5086728;28;20979;-45
2022/06/03 14:27:53;;;;;;;6.13;4.50;;;22.80;99.90;;;;;;5086776;28;20501;-45
2022/06/03 14:30:25;;;;;;;8.10;4.60;;;22.90;99.90;;;;;;5086138;28;20938;-47
2022/06/03 14:32:57;;;;;;;9.57;5.03;;;22.80;99.90;;;;;;5086672;28;21016;-45
2022/06/03 14:35:28;;;;;;;7.57;4.50;;;22.80;99.90;;;;;;5086751;28;20556;-45
2022/06/03 14:37:59;;;;;;;5.40;4.93;;;22.80;99.90;;;;;;5086447;28;20534;-45
2022/06/03 14:40:29;;;;;;;6.53;4.80;;;22.80;99.90;;;;;;5086346;28;20476;-49
2022/06/03 14:43:00;;;;;;;12.17;5.33;;;22.80;99.90;;;;;;5085027;28;20440;-45